sensor_id;sensor_type;location;lat;lon;timestamp;pressure;altitude;pressure_sealevel;temperature;humidity
71764;BME280;59602;52.142;5.408;2023-07-31T00:01:12;101055.09;;;16.95;92.14
71764;BME280;59602;52.142;5.408;2023-07-31T00:03:54;101041.78;;;16.94;92.46
71764;BME280;59602;52.142;5.408;2023-07-31T00:06:21;101036.28;;;16.94;92.97
71764;BME280;59602;52.142;5.408;2023-07-31T00:08:47;101038.25;;;16.93;93.24
71764;BME280;59602;52.142;5.408;2023-07-31T00:11:16;101035.91;;;16.92;93.09
71764;BME280;59602;52.142;5.408;2023-07-31T00:13:45;101031.28;;;16.89;93.24
71764;BME280;59602;52.142;5.408;2023-07-31T00:16:12;101016.31;;;16.90;93.62
71764;BME280;59602;52.142;5.408;2023-07-31T00:18:38;101008.88;;;16.90;93.37
71764;BME280;59602;52.142;5.408;2023-07-31T00:21:05;101011.63;;;16.90;93.61
71764;BME280;59602;52.142;5.408;2023-07-31T00:23:32;101001.00;;;16.92;93.62
71764;BME280;59602;52.142;5.408;2023-07-31T00:26:02;101007.63;;;16.95;93.66
71764;BME280;59602;52.142;5.408;2023-07-31T00:28:48;101011.50;;;16.97;93.76
71764;BME280;59602;52.142;5.408;2023-07-31T00:31:37;101008.75;;;16.97;93.83
71764;BME280;59602;52.142;5.408;2023-07-31T00:34:25;101004.81;;;16.98;93.73
71764;BME280;59602;52.142;5.408;2023-07-31T00:37:57;101007.50;;;17.02;94.02
71764;BME280;59602;52.142;5.408;2023-07-31T00:41:17;101003.53;;;17.03;94.25
71764;BME280;59602;52.142;5.408;2023-07-31T00:44:35;101001.22;;;17.01;94.82
71764;BME280;59602;52.142;5.408;2023-07-31T00:51:01;100992.69;;;16.96;95.67
71764;BME280;59602;52.142;5.408;2023-07-31T00:54:14;100993.81;;;16.98;96.13
71764;BME280;59602;52.142;5.408;2023-07-31T00:56:41;100991.44;;;17.00;97.17
71764;BME280;59602;52.142;5.408;2023-07-31T00:59:11;100998.03;;;17.03;97.73
71764;BME280;59602;52.142;5.408;2023-07-31T01:01:38;100986.22;;;17.06;98.64
71764;BME280;59602;52.142;5.408;2023-07-31T01:04:05;100987.78;;;17.07;98.73
71764;BME280;59602;52.142;5.408;2023-07-31T01:06:55;100977.56;;;17.08;99.01
71764;BME280;59602;52.142;5.408;2023-07-31T01:09:43;100988.53;;;17.08;99.65
71764;BME280;59602;52.142;5.408;2023-07-31T01:12:14;100992.44;;;17.10;99.92
71764;BME280;59602;52.142;5.408;2023-07-31T01:14:51;100995.88;;;17.14;100.00
71764;BME280;59602;52.142;5.408;2023-07-31T01:17:18;100991.09;;;17.18;100.00
71764;BME280;59602;52.142;5.408;2023-07-31T01:19:49;100996.19;;;17.20;99.86
71764;BME280;59602;52.142;5.408;2023-07-31T01:22:39;100987.09;;;17.23;99.49
71764;BME280;59602;52.142;5.408;2023-07-31T01:28:04;100988.06;;;17.13;98.13
71764;BME280;59602;52.142;5.408;2023-07-31T01:30:43;100981.47;;;17.10;98.59
71764;BME280;59602;52.142;5.408;2023-07-31T01:33:33;100988.97;;;17.06;98.38
71764;BME280;59602;52.142;5.408;2023-07-31T01:36:10;100998.00;;;17.07;98.68
71764;BME280;59602;52.142;5.408;2023-07-31T01:39:02;100989.75;;;17.07;98.36
71764;BME280;59602;52.142;5.408;2023-07-31T01:41:55;100988.19;;;17.06;98.47
71764;BME280;59602;52.142;5.408;2023-07-31T01:44:22;100991.25;;;17.11;98.64
71764;BME280;59602;52.142;5.408;2023-07-31T01:46:49;100992.00;;;17.12;98.93
71764;BME280;59602;52.142;5.408;2023-07-31T01:55:17;100978.56;;;17.17;99.19
71764;BME280;59602;52.142;5.408;2023-07-31T01:58:00;100973.06;;;17.17;99.63
71764;BME280;59602;52.142;5.408;2023-07-31T02:01:05;100970.31;;;17.17;99.79
71764;BME280;59602;52.142;5.408;2023-07-31T02:03:44;100971.09;;;17.18;100.00
71764;BME280;59602;52.142;5.408;2023-07-31T02:06:37;100966.81;;;17.17;100.00
71764;BME280;59602;52.142;5.408;2023-07-31T02:09:06;100962.50;;;17.16;100.00
71764;BME280;59602;52.142;5.408;2023-07-31T02:11:55;100952.72;;;17.15;100.00
71764;BME280;59602;52.142;5.408;2023-07-31T02:15:17;100947.63;;;17.13;100.00
71764;BME280;59602;52.142;5.408;2023-07-31T02:17:53;100947.22;;;17.15;100.00
71764;BME280;59602;52.142;5.408;2023-07-31T02:20:20;100946.78;;;17.16;99.88
71764;BME280;59602;52.142;5.408;2023-07-31T02:22:51;100935.03;;;17.16;99.78
71764;BME280;59602;52.142;5.408;2023-07-31T02:25:38;100934.59;;;17.17;99.53
71764;BME280;59602;52.142;5.408;2023-07-31T02:28:35;100936.28;;;17.11;99.38
71764;BME280;59602;52.142;5.408;2023-07-31T02:31:29;100928.81;;;17.12;99.86
71764;BME280;59602;52.142;5.408;2023-07-31T02:34:00;100939.03;;;17.11;99.60
71764;BME280;59602;52.142;5.408;2023-07-31T02:36:56;100937.13;;;17.08;99.57
71764;BME280;59602;52.142;5.408;2023-07-31T02:39:25;100931.28;;;17.06;100.00
71764;BME280;59602;52.142;5.408;2023-07-31T02:41:56;100937.13;;;17.08;99.92
71764;BME280;59602;52.142;5.408;2023-07-31T02:44:23;100927.75;;;17.06;100.00
71764;BME280;59602;52.142;5.408;2023-07-31T02:47:01;100934.03;;;17.06;100.00
71764;BME280;59602;52.142;5.408;2023-07-31T02:53:15;100928.91;;;17.08;99.90
71764;BME280;59602;52.142;5.408;2023-07-31T02:56:03;100926.16;;;17.08;100.00
71764;BME280;59602;52.142;5.408;2023-07-31T02:58:45;100913.53;;;17.11;100.00
71764;BME280;59602;52.142;5.408;2023-07-31T03:01:33;100910.34;;;17.12;100.00
71764;BME280;59602;52.142;5.408;2023-07-31T03:04:17;100909.53;;;17.15;100.00
71764;BME280;59602;52.142;5.408;2023-07-31T03:06:52;100918.94;;;17.14;100.00
71764;BME280;59602;52.142;5.408;2023-07-31T03:09:23;100920.50;;;17.15;99.51
71764;BME280;59602;52.142;5.408;2023-07-31T03:11:53;100920.88;;;17.17;99.97
71764;BME280;59602;52.142;5.408;2023-07-31T03:14:28;100922.84;;;17.17;99.85
71764;BME280;59602;52.142;5.408;2023-07-31T03:17:08;100918.53;;;17.16;100.00
71764;BME280;59602;52.142;5.408;2023-07-31T03:19:36;100917.69;;;17.19;100.00
71764;BME280;59602;52.142;5.408;2023-07-31T03:22:03;100912.97;;;17.19;99.96
71764;BME280;59602;52.142;5.408;2023-07-31T03:24:30;100912.19;;;17.19;99.98
71764;BME280;59602;52.142;5.408;2023-07-31T03:27:00;100911.00;;;17.20;99.43
71764;BME280;59602;52.142;5.408;2023-07-31T03:29:50;100913.75;;;17.20;99.02
71764;BME280;59602;52.142;5.408;2023-07-31T03:32:52;100909.09;;;17.17;99.43
71764;BME280;59602;52.142;5.408;2023-07-31T03:35:19;100911.16;;;17.13;99.31
71764;BME280;59602;52.142;5.408;2023-07-31T03:37:48;100908.81;;;17.11;99.37
71764;BME280;59602;52.142;5.408;2023-07-31T03:40:47;100909.16;;;17.13;99.39
71764;BME280;59602;52.142;5.408;2023-07-31T03:43:11;100911.56;;;17.11;99.77
71764;BME280;59602;52.142;5.408;2023-07-31T03:45:40;100913.19;;;17.09;99.60
71764;BME280;59602;52.142;5.408;2023-07-31T03:48:07;100904.16;;;17.08;99.37
71764;BME280;59602;52.142;5.408;2023-07-31T03:51:05;100906.91;;;17.08;98.97
71764;BME280;59602;52.142;5.408;2023-07-31T03:53:57;100911.25;;;17.06;98.75
71764;BME280;59602;52.142;5.408;2023-07-31T03:56:29;100900.72;;;17.04;98.98
71764;BME280;59602;52.142;5.408;2023-07-31T03:59:16;100908.09;;;17.07;99.01
71764;BME280;59602;52.142;5.408;2023-07-31T04:02:20;100904.94;;;17.09;99.01
71764;BME280;59602;52.142;5.408;2023-07-31T04:05:17;100901.41;;;17.08;99.12
71764;BME280;59602;52.142;5.408;2023-07-31T04:12:05;100889.88;;;17.17;98.46
71764;BME280;59602;52.142;5.408;2023-07-31T04:15:01;100881.34;;;17.11;98.34
71764;BME280;59602;52.142;5.408;2023-07-31T04:17:42;100881.34;;;17.11;98.74
71764;BME280;59602;52.142;5.408;2023-07-31T04:20:55;100879.78;;;17.10;97.74
71764;BME280;59602;52.142;5.408;2023-07-31T04:31:16;100861.41;;;17.07;98.08
71764;BME280;59602;52.142;5.408;2023-07-31T04:34:23;100866.13;;;17.07;98.19
71764;BME280;59602;52.142;5.408;2023-07-31T04:40:37;100874.78;;;17.05;97.48
71764;BME280;59602;52.142;5.408;2023-07-31T04:43:19;100870.50;;;17.04;97.38
71764;BME280;59602;52.142;5.408;2023-07-31T04:46:26;100878.75;;;17.04;97.57
71764;BME280;59602;52.142;5.408;2023-07-31T04:49:31;100872.47;;;17.04;97.69
71764;BME280;59602;52.142;5.408;2023-07-31T04:52:19;100866.19;;;17.03;97.87
71764;BME280;59602;52.142;5.408;2023-07-31T04:54:52;100866.97;;;17.04;97.34
71764;BME280;59602;52.142;5.408;2023-07-31T04:57:26;100858.78;;;17.00;97.77
71764;BME280;59602;52.142;5.408;2023-07-31T04:59:55;100856.09;;;16.96;97.37
71764;BME280;59602;52.142;5.408;2023-07-31T05:02:25;100850.34;;;16.91;97.56
71764;BME280;59602;52.142;5.408;2023-07-31T05:05:06;100848.78;;;16.90;97.81
71764;BME280;59602;52.142;5.408;2023-07-31T05:07:35;100844.50;;;16.89;98.40
71764;BME280;59602;52.142;5.408;2023-07-31T05:10:29;100846.84;;;16.90;98.19
71764;BME280;59602;52.142;5.408;2023-07-31T05:12:55;100839.44;;;16.87;98.31
71764;BME280;59602;52.142;5.408;2023-07-31T05:15:25;100842.16;;;16.87;98.19
71764;BME280;59602;52.142;5.408;2023-07-31T05:17:56;100847.25;;;16.89;98.66
71764;BME280;59602;52.142;5.408;2023-07-31T05:20:29;100839.78;;;16.89;98.59
71764;BME280;59602;52.142;5.408;2023-07-31T05:23:23;100840.53;;;16.90;98.13
71764;BME280;59602;52.142;5.408;2023-07-31T05:26:05;100842.47;;;16.93;98.59
71764;BME280;59602;52.142;5.408;2023-07-31T05:28:34;100835.84;;;16.90;98.72
71764;BME280;59602;52.142;5.408;2023-07-31T05:31:05;100829.56;;;16.90;98.61
71764;BME280;59602;52.142;5.408;2023-07-31T05:33:46;100836.31;;;16.85;98.86
71764;BME280;59602;52.142;5.408;2023-07-31T05:36:14;100826.81;;;16.90;99.09
71764;BME280;59602;52.142;5.408;2023-07-31T05:38:41;100823.25;;;16.93;98.62
71764;BME280;59602;52.142;5.408;2023-07-31T05:41:12;100826.03;;;16.89;98.15
71764;BME280;59602;52.142;5.408;2023-07-31T05:43:41;100821.31;;;16.90;98.55
71764;BME280;59602;52.142;5.408;2023-07-31T05:46:12;100808.81;;;16.89;98.57
71764;BME280;59602;52.142;5.408;2023-07-31T05:49:18;100817.03;;;16.89;98.79
71764;BME280;59602;52.142;5.408;2023-07-31T05:51:46;100806.56;;;16.84;98.79
71764;BME280;59602;52.142;5.408;2023-07-31T05:54:34;100796.25;;;16.88;98.82
71764;BME280;59602;52.142;5.408;2023-07-31T05:57:33;100800.56;;;16.89;98.68
71764;BME280;59602;52.142;5.408;2023-07-31T06:00:14;100804.84;;;16.90;97.79
71764;BME280;59602;52.142;5.408;2023-07-31T06:03:42;100791.91;;;16.90;98.35
71764;BME280;59602;52.142;5.408;2023-07-31T06:06:46;100785.97;;;16.92;98.49
71764;BME280;59602;52.142;5.408;2023-07-31T06:09:51;100790.97;;;16.97;98.76
71764;BME280;59602;52.142;5.408;2023-07-31T06:12:42;100789.94;;;16.91;98.30
71764;BME280;59602;52.142;5.408;2023-07-31T06:15:27;100791.03;;;16.93;98.07
71764;BME280;59602;52.142;5.408;2023-07-31T06:18:08;100790.28;;;16.93;98.48
71764;BME280;59602;52.142;5.408;2023-07-31T06:20:58;100791.03;;;16.93;98.45
71764;BME280;59602;52.142;5.408;2023-07-31T06:24:00;100780.31;;;16.99;98.73
71764;BME280;59602;52.142;5.408;2023-07-31T06:26:53;100779.56;;;16.98;98.68
71764;BME280;59602;52.142;5.408;2023-07-31T06:29:20;100773.69;;;16.96;98.55
71764;BME280;59602;52.142;5.408;2023-07-31T06:35:08;100771.16;;;17.06;98.76
71764;BME280;59602;52.142;5.408;2023-07-31T06:37:53;100774.25;;;17.08;98.45
71764;BME280;59602;52.142;5.408;2023-07-31T06:40:36;100758.97;;;17.07;98.42
71764;BME280;59602;52.142;5.408;2023-07-31T06:44:04;100764.06;;;17.08;98.94
71764;BME280;59602;52.142;5.408;2023-07-31T06:47:03;100754.66;;;17.06;98.77
71764;BME280;59602;52.142;5.408;2023-07-31T06:50:11;100740.50;;;17.07;99.31
71764;BME280;59602;52.142;5.408;2023-07-31T06:52:40;100745.59;;;17.09;99.52
71764;BME280;59602;52.142;5.408;2023-07-31T06:55:26;100748.34;;;17.09;98.89
71764;BME280;59602;52.142;5.408;2023-07-31T07:00:27;100735.03;;;17.07;99.65
71764;BME280;59602;52.142;5.408;2023-07-31T07:03:18;100738.88;;;17.10;99.80
71764;BME280;59602;52.142;5.408;2023-07-31T07:06:13;100736.41;;;17.15;99.96
71764;BME280;59602;52.142;5.408;2023-07-31T07:12:31;100739.75;;;17.23;100.00
71764;BME280;59602;52.142;5.408;2023-07-31T07:15:29;100745.59;;;17.25;100.00
71764;BME280;59602;52.142;5.408;2023-07-31T07:20:56;100738.06;;;17.29;100.00
71764;BME280;59602;52.142;5.408;2023-07-31T07:23:31;100742.03;;;17.28;100.00
71764;BME280;59602;52.142;5.408;2023-07-31T07:26:00;100732.16;;;17.31;100.00
71764;BME280;59602;52.142;5.408;2023-07-31T07:29:00;100731.34;;;17.30;100.00
71764;BME280;59602;52.142;5.408;2023-07-31T07:34:59;100738.06;;;17.29;100.00
71764;BME280;59602;52.142;5.408;2023-07-31T07:40:56;100743.84;;;17.35;100.00
71764;BME280;59602;52.142;5.408;2023-07-31T07:43:22;100723.03;;;17.34;100.00
71764;BME280;59602;52.142;5.408;2023-07-31T07:46:01;100726.19;;;17.32;100.00
71764;BME280;59602;52.142;5.408;2023-07-31T07:49:42;100720.28;;;17.34;100.00
71764;BME280;59602;52.142;5.408;2023-07-31T07:53:19;100727.34;;;17.35;100.00
71764;BME280;59602;52.142;5.408;2023-07-31T07:56:19;100729.03;;;17.45;100.00
71764;BME280;59602;52.142;5.408;2023-07-31T07:59:18;100712.91;;;17.47;100.00
71764;BME280;59602;52.142;5.408;2023-07-31T08:02:21;100713.25;;;17.49;100.00
71764;BME280;59602;52.142;5.408;2023-07-31T08:05:19;100704.13;;;17.52;100.00
71764;BME280;59602;52.142;5.408;2023-07-31T08:11:48;100708.78;;;17.55;100.00
71764;BME280;59602;52.142;5.408;2023-07-31T08:14:47;100704.38;;;17.58;100.00
71764;BME280;59602;52.142;5.408;2023-07-31T08:17:41;100699.66;;;17.58;100.00
71764;BME280;59602;52.142;5.408;2023-07-31T08:20:32;100703.09;;;17.62;100.00
71764;BME280;59602;52.142;5.408;2023-07-31T08:23:03;100691.31;;;17.62;100.00
71764;BME280;59602;52.142;5.408;2023-07-31T08:28:51;100698.47;;;17.59;100.00
71764;BME280;59602;52.142;5.408;2023-07-31T08:32:10;100694.41;;;17.64;100.00
71764;BME280;59602;52.142;5.408;2023-07-31T08:35:07;100688.38;;;17.69;100.00
71764;BME280;59602;52.142;5.408;2023-07-31T08:38:25;100690.59;;;17.74;100.00
71764;BME280;59602;52.142;5.408;2023-07-31T08:41:17;100692.06;;;17.79;100.00
71764;BME280;59602;52.142;5.408;2023-07-31T08:44:25;100689.31;;;17.79;100.00
71764;BME280;59602;52.142;5.408;2023-07-31T08:47:45;100684.94;;;17.81;100.00
71764;BME280;59602;52.142;5.408;2023-07-31T08:51:02;100688.84;;;17.84;100.00
71764;BME280;59602;52.142;5.408;2023-07-31T08:53:49;100679.69;;;17.87;100.00
71764;BME280;59602;52.142;5.408;2023-07-31T08:56:48;100680.47;;;17.88;100.00
71764;BME280;59602;52.142;5.408;2023-07-31T08:59:38;100677.63;;;17.91;100.00
71764;BME280;59602;52.142;5.408;2023-07-31T09:02:45;100685.34;;;17.96;100.00
71764;BME280;59602;52.142;5.408;2023-07-31T09:05:19;100681.28;;;18.01;100.00
71764;BME280;59602;52.142;5.408;2023-07-31T09:07:49;100680.00;;;18.05;100.00
71764;BME280;59602;52.142;5.408;2023-07-31T09:10:33;100694.44;;;18.10;100.00
71764;BME280;59602;52.142;5.408;2023-07-31T09:13:04;100687.72;;;18.11;100.00
71764;BME280;59602;52.142;5.408;2023-07-31T09:16:01;100692.56;;;18.07;100.00
71764;BME280;59602;52.142;5.408;2023-07-31T09:19:03;100688.50;;;18.11;100.00
71764;BME280;59602;52.142;5.408;2023-07-31T09:24:37;100678.47;;;18.04;100.00
71764;BME280;59602;52.142;5.408;2023-07-31T09:27:05;100680.75;;;18.06;100.00
71764;BME280;59602;52.142;5.408;2023-07-31T09:29:32;100680.66;;;18.10;100.00
71764;BME280;59602;52.142;5.408;2023-07-31T09:32:31;100682.03;;;18.18;100.00
71764;BME280;59602;52.142;5.408;2023-07-31T09:35:53;100680.38;;;18.20;100.00
71764;BME280;59602;52.142;5.408;2023-07-31T09:38:40;100673.00;;;18.17;100.00
71764;BME280;59602;52.142;5.408;2023-07-31T09:41:13;100683.66;;;18.15;100.00
71764;BME280;59602;52.142;5.408;2023-07-31T09:44:18;100673.31;;;18.19;100.00
71764;BME280;59602;52.142;5.408;2023-07-31T09:47:46;100670.56;;;18.19;100.00
71764;BME280;59602;52.142;5.408;2023-07-31T09:50:31;100675.22;;;18.22;100.00
71764;BME280;59602;52.142;5.408;2023-07-31T10:03:20;100668.72;;;18.29;100.00
71764;BME280;59602;52.142;5.408;2023-07-31T10:05:50;100664.00;;;18.30;100.00
71764;BME280;59602;52.142;5.408;2023-07-31T10:08:34;100669.41;;;18.33;100.00
71764;BME280;59602;52.142;5.408;2023-07-31T10:11:09;100661.78;;;18.37;100.00
71764;BME280;59602;52.142;5.408;2023-07-31T10:18:54;100673.06;;;18.43;100.00
71764;BME280;59602;52.142;5.408;2023-07-31T10:22:29;100670.28;;;18.43;100.00
71764;BME280;59602;52.142;5.408;2023-07-31T10:26:18;100673.81;;;18.43;100.00
71764;BME280;59602;52.142;5.408;2023-07-31T10:29:22;100673.28;;;18.49;100.00
71764;BME280;59602;52.142;5.408;2023-07-31T10:31:53;100672.63;;;18.44;100.00
71764;BME280;59602;52.142;5.408;2023-07-31T10:34:47;100667.22;;;18.41;100.00
71764;BME280;59602;52.142;5.408;2023-07-31T10:37:39;100667.22;;;18.41;100.00
71764;BME280;59602;52.142;5.408;2023-07-31T10:40:30;100674.38;;;18.38;100.00
71764;BME280;59602;52.142;5.408;2023-07-31T10:45:54;100670.84;;;18.51;100.00
71764;BME280;59602;52.142;5.408;2023-07-31T10:50:58;100663.94;;;18.59;100.00
71764;BME280;59602;52.142;5.408;2023-07-31T10:53:44;100671.44;;;18.58;100.00
71764;BME280;59602;52.142;5.408;2023-07-31T10:57:04;100672.63;;;18.57;100.00
71764;BME280;59602;52.142;5.408;2023-07-31T10:59:38;100669.09;;;18.57;100.00
71764;BME280;59602;52.142;5.408;2023-07-31T11:02:26;100664.69;;;18.59;100.00
71764;BME280;59602;52.142;5.408;2023-07-31T11:05:08;100664.69;;;18.59;100.00
71764;BME280;59602;52.142;5.408;2023-07-31T11:08:07;100670.88;;;18.63;100.00
71764;BME280;59602;52.142;5.408;2023-07-31T11:11:07;100673.06;;;18.68;100.00
71764;BME280;59602;52.142;5.408;2023-07-31T11:13:49;100670.22;;;18.72;100.00
71764;BME280;59602;52.142;5.408;2023-07-31T11:16:17;100670.88;;;18.76;100.00
71764;BME280;59602;52.142;5.408;2023-07-31T11:19:27;100671.59;;;18.80;100.00
71764;BME280;59602;52.142;5.408;2023-07-31T11:22:00;100666.84;;;18.81;100.00
71764;BME280;59602;52.142;5.408;2023-07-31T11:24:30;100659.34;;;18.81;100.00
71764;BME280;59602;52.142;5.408;2023-07-31T11:26:59;100670.81;;;18.80;100.00
71764;BME280;59602;52.142;5.408;2023-07-31T11:33:31;100653.50;;;18.79;100.00
71764;BME280;59602;52.142;5.408;2023-07-31T11:36:55;100657.59;;;18.87;100.00
71764;BME280;59602;52.142;5.408;2023-07-31T11:39:32;100671.59;;;18.80;100.00
71764;BME280;59602;52.142;5.408;2023-07-31T11:45:47;100657.81;;;18.80;100.00
71764;BME280;59602;52.142;5.408;2023-07-31T11:48:27;100656.25;;;18.79;100.00
71764;BME280;59602;52.142;5.408;2023-07-31T11:50:58;100652.38;;;18.77;100.00
71764;BME280;59602;52.142;5.408;2023-07-31T11:53:42;100658.66;;;18.77;100.00
71764;BME280;59602;52.142;5.408;2023-07-31T11:56:54;100648.31;;;18.81;100.00
71764;BME280;59602;52.142;5.408;2023-07-31T11:59:20;100647.56;;;18.81;100.00
71764;BME280;59602;52.142;5.408;2023-07-31T12:01:46;100644.91;;;18.77;100.00
71764;BME280;59602;52.142;5.408;2023-07-31T12:04:16;100649.53;;;18.80;100.00
71764;BME280;59602;52.142;5.408;2023-07-31T12:06:45;100645.69;;;18.78;100.00
71764;BME280;59602;52.142;5.408;2023-07-31T12:09:15;100654.47;;;18.73;100.00
71764;BME280;59602;52.142;5.408;2023-07-31T12:11:44;100651.50;;;18.67;100.00
71764;BME280;59602;52.142;5.408;2023-07-31T12:14:24;100662.84;;;18.69;100.00
71764;BME280;59602;52.142;5.408;2023-07-31T12:17:04;100657.53;;;18.75;100.00
71764;BME280;59602;52.142;5.408;2023-07-31T12:19:32;100657.47;;;18.78;100.00
71764;BME280;59602;52.142;5.408;2023-07-31T12:22:35;100652.31;;;18.80;100.00
71764;BME280;59602;52.142;5.408;2023-07-31T12:25:06;100658.47;;;18.84;100.00
71764;BME280;59602;52.142;5.408;2023-07-31T12:27:50;100645.13;;;18.83;100.00
71764;BME280;59602;52.142;5.408;2023-07-31T12:30:51;100639.94;;;18.85;100.00
71764;BME280;59602;52.142;5.408;2023-07-31T12:33:19;100634.78;;;18.87;100.00
71764;BME280;59602;52.142;5.408;2023-07-31T12:36:04;100628.81;;;18.88;100.00
71764;BME280;59602;52.142;5.408;2023-07-31T12:38:47;100619.78;;;18.88;100.00
71764;BME280;59602;52.142;5.408;2023-07-31T12:41:17;100626.19;;;18.85;100.00
71764;BME280;59602;52.142;5.408;2023-07-31T12:44:13;100617.91;;;18.85;100.00
71764;BME280;59602;52.142;5.408;2023-07-31T13:16:03;100612.69;;;19.00;100.00
71764;BME280;59602;52.142;5.408;2023-07-31T13:18:29;100616.13;;;19.04;100.00
71764;BME280;59602;52.142;5.408;2023-07-31T13:20:56;100622.41;;;19.04;100.00
71764;BME280;59602;52.142;5.408;2023-07-31T13:23:22;100614.69;;;19.12;100.00
71764;BME280;59602;52.142;5.408;2023-07-31T13:25:49;100612.34;;;19.23;100.00
71764;BME280;59602;52.142;5.408;2023-07-31T13:28:16;100605.16;;;19.26;100.00
71764;BME280;59602;52.142;5.408;2023-07-31T13:43:04;100584.59;;;19.05;100.00
71764;BME280;59602;52.142;5.408;2023-07-31T13:46:04;100581.72;;;19.08;100.00
71764;BME280;59602;52.142;5.408;2023-07-31T13:49:01;100586.47;;;19.08;100.00
71764;BME280;59602;52.142;5.408;2023-07-31T13:52:08;100577.09;;;19.05;100.00
71764;BME280;59602;52.142;5.408;2023-07-31T13:55:03;100577.00;;;19.09;100.00
71764;BME280;59602;52.142;5.408;2023-07-31T14:02:11;100569.34;;;19.13;100.00
71764;BME280;59602;52.142;5.408;2023-07-31T14:06:27;100578.09;;;19.12;100.00
71764;BME280;59602;52.142;5.408;2023-07-31T14:12:13;100571.81;;;18.98;100.00
71764;BME280;59602;52.142;5.408;2023-07-31T14:15:00;100564.00;;;18.97;100.00
71764;BME280;59602;52.142;5.408;2023-07-31T14:17:48;100567.97;;;18.96;100.00
71764;BME280;59602;52.142;5.408;2023-07-31T14:21:15;100566.00;;;18.96;100.00
71764;BME280;59602;52.142;5.408;2023-07-31T14:32:06;100545.03;;;18.99;100.00
71764;BME280;59602;52.142;5.408;2023-07-31T14:35:17;100553.41;;;18.95;100.00
71764;BME280;59602;52.142;5.408;2023-07-31T14:42:06;100554.41;;;19.01;100.00
71764;BME280;59602;52.142;5.408;2023-07-31T14:44:33;100550.53;;;18.99;100.00
71764;BME280;59602;52.142;5.408;2023-07-31T14:47:05;100543.50;;;18.98;100.00
71764;BME280;59602;52.142;5.408;2023-07-31T14:50:16;100542.28;;;18.99;100.00
71764;BME280;59602;52.142;5.408;2023-07-31T14:52:46;100531.69;;;18.97;100.00
71764;BME280;59602;52.142;5.408;2023-07-31T14:55:18;100534.13;;;18.95;100.00
71764;BME280;59602;52.142;5.408;2023-07-31T14:57:44;100516.19;;;18.91;100.00
71764;BME280;59602;52.142;5.408;2023-07-31T15:00:37;100515.41;;;18.90;100.00
71764;BME280;59602;52.142;5.408;2023-07-31T15:03:09;100514.75;;;18.86;100.00
71764;BME280;59602;52.142;5.408;2023-07-31T15:05:36;100509.72;;;18.84;100.00
71764;BME280;59602;52.142;5.408;2023-07-31T15:08:06;100503.72;;;18.86;100.00
71764;BME280;59602;52.142;5.408;2023-07-31T15:10:40;100503.28;;;18.87;100.00
71764;BME280;59602;52.142;5.408;2023-07-31T15:13:30;100503.63;;;18.90;100.00
71764;BME280;59602;52.142;5.408;2023-07-31T15:16:05;100494.59;;;18.89;100.00
71764;BME280;59602;52.142;5.408;2023-07-31T15:18:48;100485.53;;;18.88;100.00
71764;BME280;59602;52.142;5.408;2023-07-31T15:21:40;100467.81;;;18.90;100.00
71764;BME280;59602;52.142;5.408;2023-07-31T15:24:10;100465.63;;;18.84;100.00
71764;BME280;59602;52.142;5.408;2023-07-31T15:27:19;100469.00;;;18.88;100.00
71764;BME280;59602;52.142;5.408;2023-07-31T15:30:11;100463.50;;;18.88;100.00
71764;BME280;59602;52.142;5.408;2023-07-31T15:32:41;100449.53;;;18.83;100.00
71764;BME280;59602;52.142;5.408;2023-07-31T15:35:48;100450.94;;;18.87;100.00
71764;BME280;59602;52.142;5.408;2023-07-31T15:39:01;100436.28;;;18.91;100.00
71764;BME280;59602;52.142;5.408;2023-07-31T15:41:44;100441.47;;;18.88;100.00
71764;BME280;59602;52.142;5.408;2023-07-31T15:44:12;100435.31;;;18.84;100.00
71764;BME280;59602;52.142;5.408;2023-07-31T15:47:09;100431.34;;;18.85;100.00
71764;BME280;59602;52.142;5.408;2023-07-31T15:49:41;100417.25;;;18.83;100.00
71764;BME280;59602;52.142;5.408;2023-07-31T15:52:07;100420.91;;;18.80;100.00
71764;BME280;59602;52.142;5.408;2023-07-31T15:54:34;100420.56;;;18.78;100.00
71764;BME280;59602;52.142;5.408;2023-07-31T15:57:01;100411.56;;;18.78;100.00
71764;BME280;59602;52.142;5.408;2023-07-31T15:59:27;100416.69;;;18.76;100.00
71764;BME280;59602;52.142;5.408;2023-07-31T16:01:54;100404.91;;;18.75;100.00
71764;BME280;59602;52.142;5.408;2023-07-31T16:04:21;100403.81;;;18.73;100.00
71764;BME280;59602;52.142;5.408;2023-07-31T16:06:51;100395.44;;;18.76;100.00
71764;BME280;59602;52.142;5.408;2023-07-31T16:09:21;100382.84;;;18.75;100.00
71764;BME280;59602;52.142;5.408;2023-07-31T16:11:47;100376.16;;;18.76;100.00
71764;BME280;59602;52.142;5.408;2023-07-31T16:14:14;100387.16;;;18.76;100.00
71764;BME280;59602;52.142;5.408;2023-07-31T16:16:41;100392.34;;;18.74;100.00
71764;BME280;59602;52.142;5.408;2023-07-31T16:19:08;100384.41;;;18.76;100.00
71764;BME280;59602;52.142;5.408;2023-07-31T16:21:35;100386.41;;;18.76;100.00
71764;BME280;59602;52.142;5.408;2023-07-31T16:24:02;100376.72;;;18.71;100.00
71764;BME280;59602;52.142;5.408;2023-07-31T16:26:30;100381.34;;;18.74;100.00
71764;BME280;59602;52.142;5.408;2023-07-31T16:28:57;100371.53;;;18.73;100.00
71764;BME280;59602;52.142;5.408;2023-07-31T16:31:25;100372.31;;;18.74;100.00
71764;BME280;59602;52.142;5.408;2023-07-31T16:33:52;100380.09;;;18.75;100.00
71764;BME280;59602;52.142;5.408;2023-07-31T16:36:18;100370.31;;;18.74;100.00
71764;BME280;59602;52.142;5.408;2023-07-31T16:38:48;100368.16;;;18.69;100.00